sensor_id;sensor_type;location;lat;lon;timestamp;pressure;altitude;pressure_sealevel;temperature;humidity
59588;BME280;45412;54.472;18.464;2023-06-24T00:02:05;100075.39;;;15.72;80.11
59588;BME280;45412;54.472;18.464;2023-06-24T00:04:52;100079.30;;;15.69;80.32
59588;BME280;45412;54.472;18.464;2023-06-24T00:07:38;100075.86;;;15.68;80.66
59588;BME280;45412;54.472;18.464;2023-06-24T00:10:30;100080.48;;;15.66;80.85
59588;BME280;45412;54.472;18.464;2023-06-24T00:13:17;100078.38;;;15.65;80.99
59588;BME280;45412;54.472;18.464;2023-06-24T00:16:04;100081.38;;;15.64;80.75
59588;BME280;45412;54.472;18.464;2023-06-24T00:18:56;100078.73;;;15.64;81.25
59588;BME280;45412;54.472;18.464;2023-06-24T00:21:51;100079.80;;;15.64;81.41
59588;BME280;45412;54.472;18.464;2023-06-24T00:24:37;100080.02;;;15.65;81.34
59588;BME280;45412;54.472;18.464;2023-06-24T00:27:25;100077.19;;;15.65;81.60
59588;BME280;45412;54.472;18.464;2023-06-24T00:30:12;100078.95;;;15.65;81.62
59588;BME280;45412;54.472;18.464;2023-06-24T00:32:59;100080.08;;;15.64;81.59
59588;BME280;45412;54.472;18.464;2023-06-24T00:35:46;100077.26;;;15.64;81.66
59588;BME280;45412;54.472;18.464;2023-06-24T00:38:34;100077.23;;;15.62;81.82
59588;BME280;45412;54.472;18.464;2023-06-24T00:41:20;100076.27;;;15.61;82.25
59588;BME280;45412;54.472;18.464;2023-06-24T00:44:06;100082.64;;;15.60;82.18
59588;BME280;45412;54.472;18.464;2023-06-24T00:46:54;100082.83;;;15.58;82.28
59588;BME280;45412;54.472;18.464;2023-06-24T00:49:40;100085.60;;;15.58;82.43
59588;BME280;45412;54.472;18.464;2023-06-24T00:52:56;100093.38;;;15.57;82.78
59588;BME280;45412;54.472;18.464;2023-06-24T00:55:43;100092.59;;;15.56;83.02
59588;BME280;45412;54.472;18.464;2023-06-24T00:58:32;100089.90;;;15.58;83.46
59588;BME280;45412;54.472;18.464;2023-06-24T01:01:21;100089.28;;;15.56;83.53
59588;BME280;45412;54.472;18.464;2023-06-24T01:04:07;100083.79;;;15.56;83.81
59588;BME280;45412;54.472;18.464;2023-06-24T01:06:55;100085.11;;;15.55;83.96
59588;BME280;45412;54.472;18.464;2023-06-24T01:09:42;100085.55;;;15.54;83.78
59588;BME280;45412;54.472;18.464;2023-06-24T01:12:28;100082.77;;;15.52;84.44
59588;BME280;45412;54.472;18.464;2023-06-24T01:15:17;100085.09;;;15.50;84.55
59588;BME280;45412;54.472;18.464;2023-06-24T01:18:31;100082.61;;;15.49;84.59
59588;BME280;45412;54.472;18.464;2023-06-24T01:21:33;100083.70;;;15.49;84.70
59588;BME280;45412;54.472;18.464;2023-06-24T01:28:20;100071.80;;;15.46;85.10
59588;BME280;45412;54.472;18.464;2023-06-24T01:31:29;100072.34;;;15.47;85.39
59588;BME280;45412;54.472;18.464;2023-06-24T01:34:56;100068.59;;;15.47;85.40
59588;BME280;45412;54.472;18.464;2023-06-24T01:37:54;100068.00;;;15.45;85.65
59588;BME280;45412;54.472;18.464;2023-06-24T01:40:45;100066.54;;;15.46;85.81
59588;BME280;45412;54.472;18.464;2023-06-24T01:43:43;100068.11;;;15.46;85.98
59588;BME280;45412;54.472;18.464;2023-06-24T01:46:30;100071.66;;;15.46;85.86
59588;BME280;45412;54.472;18.464;2023-06-24T01:49:19;100069.30;;;15.47;85.87
59588;BME280;45412;54.472;18.464;2023-06-24T01:52:10;100070.40;;;15.46;85.92
59588;BME280;45412;54.472;18.464;2023-06-24T01:54:59;100071.23;;;15.45;85.97
59588;BME280;45412;54.472;18.464;2023-06-24T01:57:47;100064.27;;;15.45;86.41
59588;BME280;45412;54.472;18.464;2023-06-24T02:00:34;100068.04;;;15.45;86.30
59588;BME280;45412;54.472;18.464;2023-06-24T02:03:22;100064.48;;;15.45;86.47
59588;BME280;45412;54.472;18.464;2023-06-24T02:06:11;100064.48;;;15.45;86.38
59588;BME280;45412;54.472;18.464;2023-06-24T02:09:00;100063.25;;;15.45;86.75
59588;BME280;45412;54.472;18.464;2023-06-24T02:11:47;100066.52;;;15.44;86.59
59588;BME280;45412;54.472;18.464;2023-06-24T02:14:36;100066.88;;;15.44;86.52
59588;BME280;45412;54.472;18.464;2023-06-24T02:17:24;100070.91;;;15.45;86.95
59588;BME280;45412;54.472;18.464;2023-06-24T02:20:12;100071.48;;;15.45;86.84
59588;BME280;45412;54.472;18.464;2023-06-24T02:23:01;100074.20;;;15.44;86.79
59588;BME280;45412;54.472;18.464;2023-06-24T02:25:50;100075.98;;;15.44;87.07
59588;BME280;45412;54.472;18.464;2023-06-24T02:28:37;100076.44;;;15.45;86.82
59588;BME280;45412;54.472;18.464;2023-06-24T02:31:24;100081.80;;;15.44;87.08
59588;BME280;45412;54.472;18.464;2023-06-24T02:34:11;100083.81;;;15.41;87.01
59588;BME280;45412;54.472;18.464;2023-06-24T02:36:57;100084.64;;;15.40;87.40
59588;BME280;45412;54.472;18.464;2023-06-24T02:39:44;100082.55;;;15.39;87.13
59588;BME280;45412;54.472;18.464;2023-06-24T02:42:31;100084.02;;;15.39;87.30
59588;BME280;45412;54.472;18.464;2023-06-24T02:45:18;100086.55;;;15.37;87.42
59588;BME280;45412;54.472;18.464;2023-06-24T02:48:07;100088.38;;;15.37;87.25
59588;BME280;45412;54.472;18.464;2023-06-24T02:50:55;100087.27;;;15.35;87.50
59588;BME280;45412;54.472;18.464;2023-06-24T02:53:42;100090.85;;;15.35;87.32
59588;BME280;45412;54.472;18.464;2023-06-24T02:56:30;100095.51;;;15.35;87.39
59588;BME280;45412;54.472;18.464;2023-06-24T02:59:17;100099.13;;;15.35;87.59
59588;BME280;45412;54.472;18.464;2023-06-24T03:02:04;100102.58;;;15.32;87.52
59588;BME280;45412;54.472;18.464;2023-06-24T03:04:51;100105.92;;;15.29;87.87
59588;BME280;45412;54.472;18.464;2023-06-24T03:07:38;100098.09;;;15.26;88.00
59588;BME280;45412;54.472;18.464;2023-06-24T03:10:25;100104.02;;;15.24;87.94
59588;BME280;45412;54.472;18.464;2023-06-24T03:13:12;100104.04;;;15.22;88.13
59588;BME280;45412;54.472;18.464;2023-06-24T03:16:04;100110.73;;;15.21;87.86
59588;BME280;45412;54.472;18.464;2023-06-24T03:18:56;100116.36;;;15.22;87.86
59588;BME280;45412;54.472;18.464;2023-06-24T03:21:43;100110.96;;;15.24;87.65
59588;BME280;45412;54.472;18.464;2023-06-24T03:24:32;100116.36;;;15.28;87.49
59588;BME280;45412;54.472;18.464;2023-06-24T03:27:18;100114.89;;;15.30;87.58
59588;BME280;45412;54.472;18.464;2023-06-24T03:30:06;100119.17;;;15.32;87.38
59588;BME280;45412;54.472;18.464;2023-06-24T03:32:54;100123.92;;;15.35;87.42
59588;BME280;45412;54.472;18.464;2023-06-24T03:35:40;100125.64;;;15.38;87.44
59588;BME280;45412;54.472;18.464;2023-06-24T03:38:28;100133.48;;;15.41;87.06
59588;BME280;45412;54.472;18.464;2023-06-24T03:41:16;100131.80;;;15.44;87.08
59588;BME280;45412;54.472;18.464;2023-06-24T03:44:03;100135.02;;;15.46;86.78
59588;BME280;45412;54.472;18.464;2023-06-24T03:46:50;100136.82;;;15.47;86.90
59588;BME280;45412;54.472;18.464;2023-06-24T03:49:37;100141.05;;;15.50;86.61
59588;BME280;45412;54.472;18.464;2023-06-24T03:52:25;100143.35;;;15.52;86.64
59588;BME280;45412;54.472;18.464;2023-06-24T03:55:12;100146.01;;;15.56;86.19
59588;BME280;45412;54.472;18.464;2023-06-24T03:57:58;100151.52;;;15.60;86.11
59588;BME280;45412;54.472;18.464;2023-06-24T04:00:45;100147.55;;;15.62;86.00
59588;BME280;45412;54.472;18.464;2023-06-24T04:03:32;100146.88;;;15.65;85.62
59588;BME280;45412;54.472;18.464;2023-06-24T04:06:18;100147.80;;;15.71;85.40
59588;BME280;45412;54.472;18.464;2023-06-24T04:09:05;100150.52;;;15.76;85.15
59588;BME280;45412;54.472;18.464;2023-06-24T04:11:52;100151.83;;;15.81;84.75
59588;BME280;45412;54.472;18.464;2023-06-24T04:14:39;100150.48;;;15.86;84.47
59588;BME280;45412;54.472;18.464;2023-06-24T04:17:25;100154.84;;;15.89;84.05
59588;BME280;45412;54.472;18.464;2023-06-24T04:20:12;100154.33;;;15.94;83.86
59588;BME280;45412;54.472;18.464;2023-06-24T04:22:58;100159.56;;;16.01;83.56
59588;BME280;45412;54.472;18.464;2023-06-24T04:25:46;100152.75;;;16.08;83.30
59588;BME280;45412;54.472;18.464;2023-06-24T04:28:33;100156.82;;;16.15;82.76
59588;BME280;45412;54.472;18.464;2023-06-24T04:31:19;100157.81;;;16.22;82.43
59588;BME280;45412;54.472;18.464;2023-06-24T04:34:06;100155.32;;;16.29;82.25
59588;BME280;45412;54.472;18.464;2023-06-24T04:36:52;100156.31;;;16.37;81.91
59588;BME280;45412;54.472;18.464;2023-06-24T04:39:38;100151.27;;;16.45;81.51
59588;BME280;45412;54.472;18.464;2023-06-24T04:42:25;100152.39;;;16.55;81.22
59588;BME280;45412;54.472;18.464;2023-06-24T04:45:12;100155.48;;;16.65;80.74
59588;BME280;45412;54.472;18.464;2023-06-24T04:47:59;100163.40;;;16.72;80.41
59588;BME280;45412;54.472;18.464;2023-06-24T04:50:45;100163.50;;;16.76;80.29
59588;BME280;45412;54.472;18.464;2023-06-24T04:53:32;100170.00;;;16.80;79.95
59588;BME280;45412;54.472;18.464;2023-06-24T04:56:18;100168.32;;;16.83;79.80
59588;BME280;45412;54.472;18.464;2023-06-24T04:59:04;100165.05;;;16.89;79.78
59588;BME280;45412;54.472;18.464;2023-06-24T05:01:51;100172.92;;;16.96;79.63
59588;BME280;45412;54.472;18.464;2023-06-24T05:04:37;100176.02;;;17.05;79.54
59588;BME280;45412;54.472;18.464;2023-06-24T05:07:23;100173.71;;;17.15;79.29
59588;BME280;45412;54.472;18.464;2023-06-24T05:10:10;100174.14;;;17.21;78.99
59588;BME280;45412;54.472;18.464;2023-06-24T05:12:57;100174.35;;;17.24;78.80
59588;BME280;45412;54.472;18.464;2023-06-24T05:15:43;100179.46;;;17.34;78.65
59588;BME280;45412;54.472;18.464;2023-06-24T05:18:29;100182.15;;;17.42;78.20
59588;BME280;45412;54.472;18.464;2023-06-24T05:21:16;100182.51;;;17.52;78.03
59588;BME280;45412;54.472;18.464;2023-06-24T05:24:03;100179.94;;;17.63;77.53
59588;BME280;45412;54.472;18.464;2023-06-24T05:26:51;100177.84;;;17.70;77.38
59588;BME280;45412;54.472;18.464;2023-06-24T05:29:37;100171.89;;;17.77;77.04
59588;BME280;45412;54.472;18.464;2023-06-24T05:32:23;100171.38;;;17.85;76.58
59588;BME280;45412;54.472;18.464;2023-06-24T05:35:10;100170.86;;;17.95;76.30
59588;BME280;45412;54.472;18.464;2023-06-24T05:37:57;100176.84;;;18.05;75.82
59588;BME280;45412;54.472;18.464;2023-06-24T05:40:43;100174.48;;;18.17;75.54
59588;BME280;45412;54.472;18.464;2023-06-24T05:43:29;100170.75;;;18.28;74.97
59588;BME280;45412;54.472;18.464;2023-06-24T05:46:16;100177.06;;;18.44;74.70
59588;BME280;45412;54.472;18.464;2023-06-24T05:49:05;100178.88;;;18.61;73.90
59588;BME280;45412;54.472;18.464;2023-06-24T05:51:52;100171.45;;;18.77;73.14
59588;BME280;45412;54.472;18.464;2023-06-24T05:54:38;100169.33;;;18.99;72.71
59588;BME280;45412;54.472;18.464;2023-06-24T05:57:24;100168.22;;;19.21;71.62
59588;BME280;45412;54.472;18.464;2023-06-24T06:00:11;100165.20;;;19.48;70.55
59588;BME280;45412;54.472;18.464;2023-06-24T06:03:02;100158.74;;;19.72;69.24
59588;BME280;45412;54.472;18.464;2023-06-24T06:05:48;100159.89;;;19.84;68.16
59588;BME280;45412;54.472;18.464;2023-06-24T06:08:34;100162.42;;;20.01;67.69
59588;BME280;45412;54.472;18.464;2023-06-24T06:11:21;100159.88;;;20.49;66.39
59588;BME280;45412;54.472;18.464;2023-06-24T06:14:07;100163.05;;;21.08;63.94
59588;BME280;45412;54.472;18.464;2023-06-24T06:16:54;100151.65;;;22.23;60.97
59588;BME280;45412;54.472;18.464;2023-06-24T06:19:40;100150.11;;;23.46;57.60
59588;BME280;45412;54.472;18.464;2023-06-24T06:22:27;100148.14;;;24.67;54.01
59588;BME280;45412;54.472;18.464;2023-06-24T06:25:14;100146.54;;;26.14;50.11
59588;BME280;45412;54.472;18.464;2023-06-24T06:28:00;100142.13;;;27.70;45.71
59588;BME280;45412;54.472;18.464;2023-06-24T06:30:47;100139.44;;;28.98;41.97
59588;BME280;45412;54.472;18.464;2023-06-24T06:33:33;100139.27;;;29.18;41.18
59588;BME280;45412;54.472;18.464;2023-06-24T06:36:22;100138.74;;;29.82;39.59
59588;BME280;45412;54.472;18.464;2023-06-24T06:39:09;100142.27;;;30.27;38.17
59588;BME280;45412;54.472;18.464;2023-06-24T06:41:55;100143.50;;;29.81;38.74
59588;BME280;45412;54.472;18.464;2023-06-24T06:44:43;100147.00;;;29.40;39.41
59588;BME280;45412;54.472;18.464;2023-06-24T06:47:31;100147.84;;;29.84;38.98
59588;BME280;45412;54.472;18.464;2023-06-24T06:50:17;100145.71;;;30.34;37.59
59588;BME280;45412;54.472;18.464;2023-06-24T06:53:04;100143.21;;;30.35;37.14
59588;BME280;45412;54.472;18.464;2023-06-24T06:55:51;100140.50;;;30.60;36.75
59588;BME280;45412;54.472;18.464;2023-06-24T06:58:40;100138.08;;;31.35;35.57
59588;BME280;45412;54.472;18.464;2023-06-24T07:01:26;100134.55;;;32.23;34.36
59588;BME280;45412;54.472;18.464;2023-06-24T07:04:12;100139.40;;;33.15;32.54
59588;BME280;45412;54.472;18.464;2023-06-24T07:06:59;100143.43;;;33.80;31.28
59588;BME280;45412;54.472;18.464;2023-06-24T07:09:45;100146.02;;;34.34;30.35
59588;BME280;45412;54.472;18.464;2023-06-24T07:12:32;100143.86;;;34.40;29.64
59588;BME280;45412;54.472;18.464;2023-06-24T07:15:19;100140.37;;;34.83;29.41
59588;BME280;45412;54.472;18.464;2023-06-24T07:18:05;100138.92;;;35.41;28.45
59588;BME280;45412;54.472;18.464;2023-06-24T07:20:53;100141.12;;;35.83;27.68
59588;BME280;45412;54.472;18.464;2023-06-24T07:23:39;100137.86;;;35.75;27.25
59588;BME280;45412;54.472;18.464;2023-06-24T07:26:25;100140.60;;;35.75;27.53
59588;BME280;45412;54.472;18.464;2023-06-24T07:29:14;100139.50;;;35.93;26.91
59588;BME280;45412;54.472;18.464;2023-06-24T07:32:00;100141.58;;;36.13;26.88
59588;BME280;45412;54.472;18.464;2023-06-24T07:34:47;100147.23;;;36.60;25.85
59588;BME280;45412;54.472;18.464;2023-06-24T07:37:34;100148.67;;;36.86;25.66
59588;BME280;45412;54.472;18.464;2023-06-24T07:40:20;100147.36;;;37.20;25.24
59588;BME280;45412;54.472;18.464;2023-06-24T07:43:07;100147.98;;;37.38;24.55
59588;BME280;45412;54.472;18.464;2023-06-24T07:45:53;100148.78;;;37.58;24.53
59588;BME280;45412;54.472;18.464;2023-06-24T07:48:39;100149.94;;;37.87;24.16
59588;BME280;45412;54.472;18.464;2023-06-24T07:51:27;100153.38;;;38.18;23.90
59588;BME280;45412;54.472;18.464;2023-06-24T07:54:13;100148.98;;;38.32;23.50
59588;BME280;45412;54.472;18.464;2023-06-24T07:56:59;100154.21;;;38.45;23.21
59588;BME280;45412;54.472;18.464;2023-06-24T07:59:46;100158.39;;;38.61;22.86
59588;BME280;45412;54.472;18.464;2023-06-24T08:02:34;100159.95;;;38.78;22.16
59588;BME280;45412;54.472;18.464;2023-06-24T08:05:21;100159.22;;;38.71;21.72
59588;BME280;45412;54.472;18.464;2023-06-24T08:08:08;100163.55;;;38.75;21.38
59588;BME280;45412;54.472;18.464;2023-06-24T08:10:55;100162.86;;;38.94;20.93
59588;BME280;45412;54.472;18.464;2023-06-24T08:13:41;100168.83;;;39.20;20.90
59588;BME280;45412;54.472;18.464;2023-06-24T08:16:27;100170.36;;;39.27;20.74
59588;BME280;45412;54.472;18.464;2023-06-24T08:19:14;100173.54;;;39.15;21.02
59588;BME280;45412;54.472;18.464;2023-06-24T08:22:01;100175.88;;;38.39;21.78
59588;BME280;45412;54.472;18.464;2023-06-24T08:24:47;100179.70;;;37.91;22.53
59588;BME280;45412;54.472;18.464;2023-06-24T08:27:34;100179.98;;;38.10;22.73
59588;BME280;45412;54.472;18.464;2023-06-24T08:30:20;100185.96;;;38.09;22.59
59588;BME280;45412;54.472;18.464;2023-06-24T08:33:07;100186.77;;;37.98;22.49
59588;BME280;45412;54.472;18.464;2023-06-24T08:35:53;100188.64;;;38.38;22.15
59588;BME280;45412;54.472;18.464;2023-06-24T08:38:40;100187.41;;;38.67;21.89
59588;BME280;45412;54.472;18.464;2023-06-24T08:41:26;100188.35;;;38.51;21.58
59588;BME280;45412;54.472;18.464;2023-06-24T08:44:12;100195.16;;;38.22;22.09
59588;BME280;45412;54.472;18.464;2023-06-24T08:46:59;100192.39;;;38.46;22.32
59588;BME280;45412;54.472;18.464;2023-06-24T08:49:52;100192.15;;;38.80;22.17
59588;BME280;45412;54.472;18.464;2023-06-24T08:52:47;100199.84;;;39.34;21.75
59588;BME280;45412;54.472;18.464;2023-06-24T08:55:43;100199.46;;;39.16;21.64
59588;BME280;45412;54.472;18.464;2023-06-24T08:58:29;100195.73;;;38.95;22.01
59588;BME280;45412;54.472;18.464;2023-06-24T09:01:16;100197.82;;;38.98;22.08
59588;BME280;45412;54.472;18.464;2023-06-24T09:04:02;100198.88;;;39.01;21.90
59588;BME280;45412;54.472;18.464;2023-06-24T09:06:50;100201.50;;;38.77;22.13
59588;BME280;45412;54.472;18.464;2023-06-24T09:09:44;100202.67;;;39.13;21.80
59588;BME280;45412;54.472;18.464;2023-06-24T09:12:34;100199.89;;;39.39;21.51
59588;BME280;45412;54.472;18.464;2023-06-24T09:15:21;100195.75;;;38.93;21.75
59588;BME280;45412;54.472;18.464;2023-06-24T09:18:08;100198.41;;;38.68;22.19
59588;BME280;45412;54.472;18.464;2023-06-24T09:20:57;100200.65;;;38.96;22.32
59588;BME280;45412;54.472;18.464;2023-06-24T09:23:43;100196.61;;;39.50;21.86
59588;BME280;45412;54.472;18.464;2023-06-24T09:26:29;100194.86;;;40.03;21.66
59588;BME280;45412;54.472;18.464;2023-06-24T09:29:16;100196.06;;;40.69;21.00
59588;BME280;45412;54.472;18.464;2023-06-24T09:32:07;100195.52;;;40.43;20.70
59588;BME280;45412;54.472;18.464;2023-06-24T09:34:54;100198.50;;;39.87;21.43
59588;BME280;45412;54.472;18.464;2023-06-24T09:37:40;100202.23;;;39.36;21.70
59588;BME280;45412;54.472;18.464;2023-06-24T09:40:27;100197.35;;;38.41;21.90
59588;BME280;45412;54.472;18.464;2023-06-24T09:43:20;100192.23;;;37.80;22.98
59588;BME280;45412;54.472;18.464;2023-06-24T09:46:06;100196.84;;;37.45;23.33
59588;BME280;45412;54.472;18.464;2023-06-24T09:48:53;100196.73;;;37.32;22.81
59588;BME280;45412;54.472;18.464;2023-06-24T09:51:45;100201.45;;;36.79;22.72
59588;BME280;45412;54.472;18.464;2023-06-24T09:54:32;100197.37;;;36.28;23.13
59588;BME280;45412;54.472;18.464;2023-06-24T09:57:25;100195.83;;;35.88;23.57
59588;BME280;45412;54.472;18.464;2023-06-24T10:00:16;100195.60;;;35.90;23.78
59588;BME280;45412;54.472;18.464;2023-06-24T10:03:04;100200.67;;;35.95;23.47
59588;BME280;45412;54.472;18.464;2023-06-24T10:05:51;100193.91;;;35.96;23.27
59588;BME280;45412;54.472;18.464;2023-06-24T10:08:37;100197.33;;;36.23;23.09
59588;BME280;45412;54.472;18.464;2023-06-24T10:11:24;100198.27;;;36.50;22.71
59588;BME280;45412;54.472;18.464;2023-06-24T10:14:12;100192.53;;;37.07;22.13
59588;BME280;45412;54.472;18.464;2023-06-24T10:17:05;100193.83;;;37.59;22.22
59588;BME280;45412;54.472;18.464;2023-06-24T10:19:53;100186.88;;;38.10;21.94
59588;BME280;45412;54.472;18.464;2023-06-24T10:22:45;100193.27;;;38.25;21.03
59588;BME280;45412;54.472;18.464;2023-06-24T10:25:40;100195.65;;;38.58;20.90
59588;BME280;45412;54.472;18.464;2023-06-24T10:31:54;100203.67;;;38.76;20.70
59588;BME280;45412;54.472;18.464;2023-06-24T10:34:55;100203.20;;;38.13;21.25
59588;BME280;45412;54.472;18.464;2023-06-24T10:37:54;100201.96;;;37.67;21.52
59588;BME280;45412;54.472;18.464;2023-06-24T10:40:43;100204.90;;;37.71;21.66
59588;BME280;45412;54.472;18.464;2023-06-24T10:43:30;100204.52;;;37.32;22.00
59588;BME280;45412;54.472;18.464;2023-06-24T10:46:16;100204.77;;;36.79;22.25
59588;BME280;45412;54.472;18.464;2023-06-24T10:49:03;100203.83;;;36.60;22.94
59588;BME280;45412;54.472;18.464;2023-06-24T10:51:50;100211.55;;;35.97;23.05
59588;BME280;45412;54.472;18.464;2023-06-24T10:54:37;100217.04;;;35.18;24.07
59588;BME280;45412;54.472;18.464;2023-06-24T10:57:27;100211.44;;;35.29;24.11
59588;BME280;45412;54.472;18.464;2023-06-24T11:00:15;100213.35;;;35.37;23.88
59588;BME280;45412;54.472;18.464;2023-06-24T11:05:56;100224.63;;;34.17;24.95
59588;BME280;45412;54.472;18.464;2023-06-24T11:08:44;100216.51;;;33.39;25.91
59588;BME280;45412;54.472;18.464;2023-06-24T11:11:31;100218.61;;;32.62;26.65
59588;BME280;45412;54.472;18.464;2023-06-24T11:14:19;100225.48;;;31.81;28.87
59588;BME280;45412;54.472;18.464;2023-06-24T11:17:05;100220.83;;;31.17;29.76
59588;BME280;45412;54.472;18.464;2023-06-24T11:19:56;100226.56;;;30.61;30.41
59588;BME280;45412;54.472;18.464;2023-06-24T11:22:43;100225.21;;;30.14;31.33
59588;BME280;45412;54.472;18.464;2023-06-24T11:25:30;100219.39;;;29.80;31.70
59588;BME280;45412;54.472;18.464;2023-06-24T11:28:19;100221.66;;;29.68;32.16
59588;BME280;45412;54.472;18.464;2023-06-24T11:31:09;100224.40;;;29.48;32.91
59588;BME280;45412;54.472;18.464;2023-06-24T11:33:56;100228.70;;;29.18;33.52
59588;BME280;45412;54.472;18.464;2023-06-24T11:36:43;100231.42;;;28.89;34.23
59588;BME280;45412;54.472;18.464;2023-06-24T11:39:29;100237.41;;;28.41;34.72
59588;BME280;45412;54.472;18.464;2023-06-24T11:42:15;100235.50;;;28.11;35.51
59588;BME280;45412;54.472;18.464;2023-06-24T11:45:10;100234.94;;;27.97;35.65
59588;BME280;45412;54.472;18.464;2023-06-24T11:48:04;100235.61;;;27.94;35.06
59588;BME280;45412;54.472;18.464;2023-06-24T11:50:54;100233.47;;;27.86;34.46
59588;BME280;45412;54.472;18.464;2023-06-24T11:53:42;100235.95;;;27.75;35.24
59588;BME280;45412;54.472;18.464;2023-06-24T11:56:39;100237.74;;;27.66;36.04
59588;BME280;45412;54.472;18.464;2023-06-24T11:59:27;100236.95;;;27.59;36.34
59588;BME280;45412;54.472;18.464;2023-06-24T12:02:15;100241.20;;;27.29;36.37
59588;BME280;45412;54.472;18.464;2023-06-24T12:05:02;100242.55;;;27.00;36.23
59588;BME280;45412;54.472;18.464;2023-06-24T12:07:49;100248.31;;;26.88;37.22
59588;BME280;45412;54.472;18.464;2023-06-24T12:10:37;100245.82;;;26.74;37.87
59588;BME280;45412;54.472;18.464;2023-06-24T12:13:24;100246.95;;;26.64;38.77
59588;BME280;45412;54.472;18.464;2023-06-24T12:16:10;100245.36;;;26.83;39.10
59588;BME280;45412;54.472;18.464;2023-06-24T12:18:57;100251.15;;;26.91;38.85
59588;BME280;45412;54.472;18.464;2023-06-24T12:21:43;100251.69;;;26.69;38.49
59588;BME280;45412;54.472;18.464;2023-06-24T12:24:30;100253.08;;;26.48;38.48
59588;BME280;45412;54.472;18.464;2023-06-24T12:27:17;100258.14;;;26.38;38.87
59588;BME280;45412;54.472;18.464;2023-06-24T12:30:04;100252.56;;;26.35;39.32
59588;BME280;45412;54.472;18.464;2023-06-24T12:32:51;100259.33;;;26.35;39.33
59588;BME280;45412;54.472;18.464;2023-06-24T12:35:37;100257.20;;;26.33;39.16
59588;BME280;45412;54.472;18.464;2023-06-24T12:38:25;100253.46;;;26.24;39.40
59588;BME280;45412;54.472;18.464;2023-06-24T12:41:11;100249.02;;;26.15;39.91
59588;BME280;45412;54.472;18.464;2023-06-24T12:43:58;100254.53;;;26.28;40.10
59588;BME280;45412;54.472;18.464;2023-06-24T12:46:45;100250.56;;;26.40;39.48
59588;BME280;45412;54.472;18.464;2023-06-24T12:49:31;100250.23;;;26.53;39.07
59588;BME280;45412;54.472;18.464;2023-06-24T12:52:17;100241.36;;;26.69;39.29
59588;BME280;45412;54.472;18.464;2023-06-24T12:55:06;100239.86;;;26.80;38.64
59588;BME280;45412;54.472;18.464;2023-06-24T12:57:54;100233.45;;;26.83;37.56
59588;BME280;45412;54.472;18.464;2023-06-24T13:00:41;100241.33;;;26.85;37.23
59588;BME280;45412;54.472;18.464;2023-06-24T13:03:28;100241.61;;;26.86;36.95
59588;BME280;45412;54.472;18.464;2023-06-24T13:06:14;100234.30;;;26.96;36.92
59588;BME280;45412;54.472;18.464;2023-06-24T13:09:00;100230.85;;;27.16;37.00
59588;BME280;45412;54.472;18.464;2023-06-24T13:11:47;100232.45;;;27.28;37.01
59588;BME280;45412;54.472;18.464;2023-06-24T13:14:35;100228.21;;;27.22;36.10
59588;BME280;45412;54.472;18.464;2023-06-24T13:17:22;100230.90;;;27.10;35.80
59588;BME280;45412;54.472;18.464;2023-06-24T13:20:09;100229.64;;;27.11;35.59
59588;BME280;45412;54.472;18.464;2023-06-24T13:22:56;100238.41;;;27.01;35.77
59588;BME280;45412;54.472;18.464;2023-06-24T13:25:42;100236.40;;;26.82;35.77
59588;BME280;45412;54.472;18.464;2023-06-24T13:28:29;100235.71;;;26.78;36.06
59588;BME280;45412;54.472;18.464;2023-06-24T13:31:17;100238.38;;;26.76;36.04
59588;BME280;45412;54.472;18.464;2023-06-24T13:34:04;100244.02;;;26.58;36.55
59588;BME280;45412;54.472;18.464;2023-06-24T13:36:50;100243.01;;;26.40;36.45
59588;BME280;45412;54.472;18.464;2023-06-24T13:39:37;100240.48;;;26.34;36.52
59588;BME280;45412;54.472;18.464;2023-06-24T13:42:24;100243.17;;;26.40;36.75
59588;BME280;45412;54.472;18.464;2023-06-24T13:45:12;100239.10;;;26.40;36.44
59588;BME280;45412;54.472;18.464;2023-06-24T13:47:59;100240.18;;;26.37;35.64
59588;BME280;45412;54.472;18.464;2023-06-24T13:50:46;100246.79;;;26.32;35.94
59588;BME280;45412;54.472;18.464;2023-06-24T13:53:32;100246.66;;;26.24;35.89
59588;BME280;45412;54.472;18.464;2023-06-24T13:56:19;100248.19;;;26.06;36.16
59588;BME280;45412;54.472;18.464;2023-06-24T13:59:05;100244.80;;;25.97;36.15
59588;BME280;45412;54.472;18.464;2023-06-24T14:01:52;100245.81;;;25.87;36.09
59588;BME280;45412;54.472;18.464;2023-06-24T14:04:41;100245.75;;;25.78;36.33
59588;BME280;45412;54.472;18.464;2023-06-24T14:07:28;100248.45;;;25.64;36.35
59588;BME280;45412;54.472;18.464;2023-06-24T14:10:15;100244.05;;;25.57;36.47
59588;BME280;45412;54.472;18.464;2023-06-24T14:13:01;100246.21;;;25.50;36.22
59588;BME280;45412;54.472;18.464;2023-06-24T14:15:49;100244.12;;;25.51;36.58
59588;BME280;45412;54.472;18.464;2023-06-24T14:18:36;100248.95;;;25.57;36.53
59588;BME280;45412;54.472;18.464;2023-06-24T14:21:22;100247.95;;;25.59;36.35
59588;BME280;45412;54.472;18.464;2023-06-24T14:24:09;100251.13;;;25.62;36.40
59588;BME280;45412;54.472;18.464;2023-06-24T14:27:05;100258.66;;;25.64;36.32
59588;BME280;45412;54.472;18.464;2023-06-24T14:29:52;100251.33;;;25.62;36.23
59588;BME280;45412;54.472;18.464;2023-06-24T14:32:38;100250.23;;;25.64;36.73
59588;BME280;45412;54.472;18.464;2023-06-24T14:35:25;100250.58;;;25.66;36.79
59588;BME280;45412;54.472;18.464;2023-06-24T14:38:12;100246.51;;;25.67;36.51